Stations météo

Publicité
Isola Stromboli, Italie (16416): Température de l'air & dewpoint: 12.02.2020 07:00:00 - 18.02.2020 07:00:00 (CET)Isola Stromboli, Italie (16416): Vitesse du vent: 12.02.2020 07:00:00 - 18.02.2020 07:00:00 (CET)Isola Stromboli, Italie (16416): Direction du vent: 12.02.2020 07:00:00 - 18.02.2020 07:00:00 (CET)Isola Stromboli, Italie (16416): reduced air pressure: 12.02.2020 07:00:00 - 18.02.2020 07:00:00 (CET)Isola Stromboli, Italie (16416): Quantités de précipitations: 12.02.2020 07:00:00 - 18.02.2020 07:00:00 (CET)
Date & Time tt [°C] td [°C] ff [km/h] ff [knt] dd ppp [hPa] rr [mm]
18.02.2020 07:00:00 11,9 7,6 11 6 S 1025,5 0,0
18.02.2020 06:00:00 12,0 7,5 9 5 S 1025,3 -
18.02.2020 05:00:00 12,0 7,1 9 5 S 1025,6 -
18.02.2020 04:00:00 11,9 7,2 8 4 S 1025,6 -
18.02.2020 03:00:00 11,6 7,3 4 2 S 1025,9 -
18.02.2020 02:00:00 11,7 7,6 5 3 S 1026,3 -
18.02.2020 01:00:00 11,2 7,5 8 4 S 1026,5 0,0
18.02.2020 00:00:00 10,8 7,4 8 4 S 1026,6 -
17.02.2020 23:00:00 10,6 7,8 8 4 S 1026,9 -
17.02.2020 22:00:00 10,0 6,7 5 3 S 1027,4 -
17.02.2020 21:00:00 10,3 6,4 2 1 S 1027,4 -
17.02.2020 20:00:00 10,3 6,4 4 2 S 1027,4 -
17.02.2020 19:00:00 11,2 7,5 9 5 S 1027,6 0,0
17.02.2020 18:00:00 11,6 7,7 9 5 S 1027,2 -
17.02.2020 17:00:00 12,0 7,9 9 5 S 1027,1 -
17.02.2020 16:00:00 12,5 7,5 8 4 S 1027,1 -
17.02.2020 15:00:00 13,6 8,2 11 6 S 1027,0 -
17.02.2020 14:00:00 13,8 7,9 11 6 S 1027,7 -
17.02.2020 13:00:00 15,0 9,1 4 2 S 1028,4 0,0
17.02.2020 12:00:00 - - - - - - -
17.02.2020 11:00:00 13,6 8,0 11 6 S 1029,6 -
17.02.2020 10:00:00 13,3 7,9 2 1 S 1029,3 -
17.02.2020 09:00:00 14,0 9,6 0 0 N 1029,4 -
17.02.2020 08:00:00 12,4 8,4 0 0 N 1029,3 -
17.02.2020 07:00:00 10,4 6,7 0 0 N 1029,2 0,0
17.02.2020 06:00:00 10,5 6,8 9 5 S 1029,1 -
17.02.2020 05:00:00 10,2 5,7 5 3 S 1028,9 -
17.02.2020 04:00:00 10,0 4,1 8 4 S 1029,2 -
17.02.2020 03:00:00 11,0 6,1 9 5 S 1029,4 -
17.02.2020 02:00:00 10,5 3,9 8 4 S 1029,8 -
17.02.2020 01:00:00 10,0 3,9 5 3 S 1030,0 0,0
17.02.2020 00:00:00 10,2 5,3 5 3 S 1030,2 -
16.02.2020 23:00:00 11,2 6,3 8 4 S 1030,3 -
16.02.2020 22:00:00 11,4 5,9 5 3 S 1030,2 -
16.02.2020 21:00:00 11,6 6,0 9 5 S 1029,9 -
16.02.2020 20:00:00 11,4 5,0 11 6 S 1029,6 -
16.02.2020 19:00:00 11,5 5,7 11 6 S 1029,5 0,0
16.02.2020 18:00:00 12,1 7,4 9 5 S 1029,3 -
16.02.2020 17:00:00 12,4 6,6 8 4 S 1029,2 -
16.02.2020 16:00:00 13,1 8,3 11 6 S 1029,1 -
16.02.2020 15:00:00 13,4 10,0 8 4 S 1029,1 -
16.02.2020 14:00:00 13,2 8,8 9 5 S 1028,8 -
16.02.2020 13:00:00 14,4 9,2 5 3 S 1028,9 0,0
16.02.2020 12:00:00 14,5 9,9 11 6 S 1029,3 -
16.02.2020 11:00:00 15,3 9,8 11 6 S 1029,5 -
16.02.2020 10:00:00 15,3 10,2 5 3 S 1029,8 -
16.02.2020 09:00:00 14,7 9,9 2 1 S 1029,5 -
16.02.2020 08:00:00 13,2 8,8 0 0 N 1028,9 -
16.02.2020 07:00:00 11,3 6,2 0 0 N 1028,0 0,0
16.02.2020 06:00:00 11,4 4,8 0 0 N 1027,8 -
16.02.2020 05:00:00 11,6 4,7 0 0 N 1027,8 -
16.02.2020 04:00:00 11,5 3,2 0 0 N 1027,9 -
16.02.2020 03:00:00 11,4 5,2 4 2 S 1028,1 -
16.02.2020 02:00:00 11,8 6,0 11 6 S 1027,9 -
16.02.2020 01:00:00 11,9 6,3 11 6 S 1027,8 0,0
16.02.2020 00:00:00 11,4 5,9 2 1 S 1027,6 -
15.02.2020 23:00:00 12,0 7,3 5 3 S 1027,4 -
15.02.2020 22:00:00 12,0 6,2 8 4 S 1027,2 -
15.02.2020 21:00:00 12,1 6,1 8 4 S 1027,1 -
15.02.2020 20:00:00 11,9 5,9 13 7 S 1026,5 -
15.02.2020 19:00:00 12,3 5,2 11 6 S 1026,4 0,0
15.02.2020 18:00:00 11,8 5,8 9 5 S 1025,7 -
15.02.2020 17:00:00 12,6 5,9 5 3 S 1025,1 -
15.02.2020 16:00:00 13,4 5,2 5 3 S 1024,7 -
15.02.2020 15:00:00 14,7 6,4 13 7 S 1024,6 -
15.02.2020 14:00:00 14,6 6,4 15 8 S 1024,4 -
15.02.2020 13:00:00 14,7 5,9 16 9 S 1024,5 0,0
15.02.2020 12:00:00 15,3 5,4 9 5 S 1024,6 -
15.02.2020 11:00:00 14,9 6,4 15 8 S 1024,5 -
15.02.2020 10:00:00 14,8 8,0 13 7 S 1024,1 -
15.02.2020 09:00:00 14,0 8,1 15 8 S 1023,6 -
15.02.2020 08:00:00 13,2 7,6 13 7 S 1022,9 -
15.02.2020 07:00:00 12,6 7,0 13 7 S 1022,2 0,0
15.02.2020 06:00:00 12,8 6,1 21 11 S 1021,4 -
15.02.2020 05:00:00 13,1 7,1 22 12 S 1021,0 -
15.02.2020 04:00:00 13,0 6,5 22 12 S 1020,4 -
15.02.2020 03:00:00 13,4 7,6 18 10 S 1020,7 -
15.02.2020 02:00:00 13,4 7,8 22 12 S 1020,5 -
15.02.2020 01:00:00 13,3 8,5 28 15 S 1020,2 0,0
15.02.2020 00:00:00 13,8 9,0 34 18 S 1019,7 -
14.02.2020 23:00:00 13,5 11,9 37 20 S 1019,2 -
14.02.2020 22:00:00 13,7 12,7 29 16 S 1019,2 -
14.02.2020 21:00:00 13,8 12,3 34 18 S 1018,4 -
14.02.2020 20:00:00 13,8 12,0 31 17 S 1017,8 -
14.02.2020 19:00:00 13,8 11,5 34 18 S 1017,2 0,0
14.02.2020 18:00:00 14,1 11,2 35 19 S 1016,4 -
14.02.2020 17:00:00 14,2 11,9 21 11 S 1016,2 -
14.02.2020 16:00:00 14,2 12,0 31 17 S 1016,0 -
14.02.2020 15:00:00 14,4 12,4 24 13 S 1016,2 -
14.02.2020 14:00:00 14,4 11,9 22 12 S 1016,2 -
14.02.2020 13:00:00 14,6 11,7 13 7 S 1017,3 0,0
14.02.2020 12:00:00 14,9 11,3 9 5 S 1017,9 -
14.02.2020 11:00:00 16,1 11,0 8 4 S 1018,4 -
14.02.2020 10:00:00 15,0 10,4 9 5 S 1018,9 -
14.02.2020 09:00:00 14,9 8,8 13 7 S 1019,3 -
14.02.2020 08:00:00 13,9 7,6 2 1 S 1019,5 -
14.02.2020 07:00:00 12,9 3,7 2 1 S 1019,4 0,0
14.02.2020 06:00:00 12,9 5,7 0 0 N 1019,9 -
14.02.2020 05:00:00 13,0 4,9 0 0 N 1020,0 -
14.02.2020 04:00:00 13,0 4,1 0 0 N 1020,3 -
14.02.2020 03:00:00 13,0 4,9 0 0 N 1021,1 -
14.02.2020 02:00:00 12,6 5,2 0 0 N 1021,5 -
14.02.2020 01:00:00 13,1 2,8 5 3 S 1021,6 0,0
14.02.2020 00:00:00 13,7 3,9 0 0 N 1022,2 -
13.02.2020 23:00:00 14,3 2,1 0 0 N 1022,8 -
13.02.2020 22:00:00 13,8 1,3 0 0 N 1023,0 -
13.02.2020 21:00:00 14,0 1,2 0 0 N 1023,1 -
13.02.2020 20:00:00 13,9 3,0 4 2 S 1022,9 -
13.02.2020 19:00:00 13,7 3,9 8 4 S 1022,7 0,0
13.02.2020 18:00:00 13,2 5,8 0 0 N 1022,8 -
13.02.2020 17:00:00 13,5 10,3 0 0 N 1022,5 -
13.02.2020 16:00:00 14,0 10,8 0 0 N 1022,7 -
13.02.2020 15:00:00 14,0 10,4 0 0 N 1022,8 -
13.02.2020 14:00:00 14,3 10,3 8 4 S 1022,9 -
13.02.2020 13:00:00 15,1 11,3 9 5 S 1023,4 0,0
13.02.2020 12:00:00 14,3 11,4 9 5 S 1024,1 -
13.02.2020 11:00:00 14,1 11,9 8 4 S 1024,4 -
13.02.2020 10:00:00 14,5 11,6 9 5 S 1024,2 -
13.02.2020 09:00:00 13,6 12,1 9 5 S 1023,9 -
13.02.2020 08:00:00 12,8 10,7 8 4 S 1023,5 -
13.02.2020 07:00:00 12,0 9,9 4 2 S 1023,1 0,0
13.02.2020 06:00:00 12,0 9,9 4 2 S 1023,1 -
13.02.2020 05:00:00 11,9 9,4 4 2 S 1023,1 -
13.02.2020 04:00:00 11,7 8,5 0 0 N 1023,2 -
13.02.2020 03:00:00 11,9 8,5 0 0 N 1023,2 -
13.02.2020 02:00:00 12,5 9,3 2 1 S 1023,1 -
13.02.2020 01:00:00 12,5 9,5 11 6 S 1023,1 0,0
13.02.2020 00:00:00 13,0 10,3 9 5 S 1022,9 -
12.02.2020 23:00:00 12,8 10,1 15 8 S 1022,6 -
12.02.2020 22:00:00 12,5 9,3 2 1 S 1022,1 -
12.02.2020 21:00:00 13,3 9,5 16 9 S 1021,9 -
12.02.2020 20:00:00 13,3 11,3 21 11 S 1021,2 -
12.02.2020 19:00:00 13,4 11,3 16 9 S 1021,0 0,0
12.02.2020 18:00:00 13,8 11,3 22 12 S 1020,2 -
12.02.2020 17:00:00 14,1 10,7 22 12 S 1019,9 -
12.02.2020 16:00:00 14,3 11,8 18 10 S 1019,8 -
12.02.2020 15:00:00 14,5 12,0 24 13 S 1020,0 -
12.02.2020 14:00:00 14,7 12,0 22 12 S 1020,2 -
12.02.2020 13:00:00 15,3 12,0 22 12 S 1020,1 0,0
12.02.2020 12:00:00 15,0 11,7 21 11 S 1020,3 -
12.02.2020 11:00:00 15,2 11,7 22 12 S 1020,5 -
12.02.2020 10:00:00 14,6 11,7 18 10 S 1020,0 -
12.02.2020 09:00:00 14,4 12,9 21 11 S 1019,6 -
12.02.2020 08:00:00 14,4 13,1 21 11 S 1019,1 -
12.02.2020 07:00:00 14,4 12,9 26 14 S 1018,5 0,0

tt = Température de l'air
td = dewpoint
ff = Vitesse du vent
dd = Direction du vent
ppp = reduced air pressure
rr = Quantités de précipitations

stations d'obs. à proximité